Time;durP1;ratioP1;P1;durP2;ratioP2;P2;SDS_P1;SDS_P2;PMS_P1;PMS_P2;Temp;Humidity;BMP_temperature;BMP_pressure;BME280_temperature;BME280_humidity;BME280_pressure;Samples;Min_cycle;Max_cycle;Signal;HPM_P1;HPM_P2
2022/11/16 00:00:09;;;;;;;2.13;2.03;;;;;;;8.59;84.72;95177.53;5115005;28;20434;-52
2022/11/16 00:02:39;;;;;;;1.97;0.90;;;;;;;8.74;82.63;95174.13;5115153;28;20431;-52
2022/11/16 00:05:08;;;;;;;2.93;2.67;;;;;;;8.86;81.95;95175.47;5115199;28;20420;-52
2022/11/16 00:07:36;;;;;;;0.80;0.60;;;;;;;8.98;81.28;95177.84;5115046;28;20435;-52
2022/11/16 00:10:05;;;;;;;1.17;1.07;;;;;;;8.97;80.94;95173.66;5114952;28;20984;-52
2022/11/16 00:12:33;;;;;;;1.97;1.87;;;;;;;9.10;79.62;95178.44;5114966;28;20434;-52
2022/11/16 00:15:02;;;;;;;0.80;0.80;;;;;;;9.12;79.40;95173.66;5115231;28;20450;-52
2022/11/16 00:17:30;;;;;;;1.03;1.03;;;;;;;8.81;80.30;95170.19;5115295;28;20537;-52
2022/11/16 00:19:59;;;;;;;7.07;1.70;;;;;;;7.82;84.22;95126.50;5115212;28;20427;-52
2022/11/16 00:22:28;;;;;;;4.37;2.63;;;;;;;7.70;90.86;95168.88;5114811;28;20424;-52
2022/11/16 00:24:56;;;;;;;2.50;1.23;;;;;;;7.46;96.84;95173.72;5114839;28;20523;-52
2022/11/16 00:27:24;;;;;;;1.43;1.33;;;;;;;7.55;98.91;95163.50;5114494;28;20475;-52
2022/11/16 00:29:53;;;;;;;1.07;1.07;;;;;;;7.98;94.94;95162.44;5114672;28;20490;-53
2022/11/16 00:32:22;;;;;;;4.17;2.33;;;;;;;8.39;89.47;95164.25;5114560;28;20955;-53
2022/11/16 00:34:50;;;;;;;3.20;3.00;;;;;;;8.55;87.36;95168.50;5114369;28;20832;-53
2022/11/16 00:37:20;;;;;;;0.60;0.60;;;;;;;8.29;88.10;95162.38;5114343;28;20443;-53
2022/11/16 00:39:48;;;;;;;7.60;2.03;;;;;;;8.31;87.22;95170.03;5114566;28;20514;-53
2022/11/16 00:42:16;;;;;;;1.60;1.60;;;;;;;8.16;87.10;95160.16;5114677;28;20942;-53
2022/11/16 00:44:45;;;;;;;3.40;1.40;;;;;;;8.28;86.47;95160.78;5114413;28;20436;-53
2022/11/16 00:47:13;;;;;;;0.80;0.80;;;;;;;8.53;85.65;95159.25;5114597;28;20930;-53
2022/11/16 00:49:41;;;;;;;1.37;1.27;;;;;;;8.66;84.13;95158.78;5114576;28;20959;-53
2022/11/16 00:52:09;;;;;;;1.37;1.27;;;;;;;8.60;83.98;95159.81;5114265;28;20950;-53
2022/11/16 00:54:39;;;;;;;2.73;1.83;;;;;;;8.55;84.55;95149.25;5114257;28;20435;-53
2022/11/16 00:57:07;;;;;;;1.47;1.37;;;;;;;7.91;88.36;95161.88;5114440;28;20438;-53
2022/11/16 00:59:35;;;;;;;1.20;1.20;;;;;;;8.00;91.04;95155.84;5114173;28;20430;-53
2022/11/16 01:02:04;;;;;;;2.63;2.53;;;;;;;8.19;90.53;95148.31;5114377;28;20420;-53
2022/11/16 01:04:32;;;;;;;1.20;1.13;;;;;;;8.23;92.85;95146.72;5113353;28;20451;-53
2022/11/16 01:07:00;;;;;;;1.70;1.60;;;;;;;8.39;91.65;95151.03;5114190;28;20938;-53
2022/11/16 01:09:28;;;;;;;2.07;1.97;;;;;;;8.17;93.77;95139.84;5114192;27;20428;-53
2022/11/16 01:12:11;;;;;;;2.43;1.30;;;;;;;8.44;91.56;95148.41;5114106;28;20908;-53
2022/11/16 01:14:43;;;;;;;0.97;0.97;;;;;;;8.45;90.04;95141.31;5113849;28;20431;-50
2022/11/16 01:17:11;;;;;;;1.50;1.20;;;;;;;8.54;88.83;95145.81;5113739;28;20428;-50
2022/11/16 01:19:40;;;;;;;2.23;1.07;;;;;;;8.92;85.62;95136.63;5113602;28;21133;-50
2022/11/16 01:22:09;;;;;;;0.70;0.70;;;;;;;8.47;89.32;95141.81;5113656;28;20426;-51
2022/11/16 01:24:37;;;;;;;2.00;1.90;;;;;;;8.81;88.12;95142.94;5113718;28;20514;-51
2022/11/16 01:27:06;;;;;;;0.70;0.70;;;;;;;8.82;88.02;95126.06;5113575;28;20815;-51
2022/11/16 01:29:35;;;;;;;0.60;0.60;;;;;;;9.17;88.34;95141.94;5113755;28;20432;-51
2022/11/16 01:32:03;;;;;;;1.17;1.07;;;;;;;8.76;87.87;95077.69;5113533;28;20420;-51
2022/11/16 01:34:32;;;;;;;0.67;0.67;;;;;;;9.24;87.38;95129.25;5113463;28;20423;-51
2022/11/16 01:37:01;;;;;;;0.67;0.67;;;;;;;9.05;87.99;95140.59;5113715;28;20432;-51
2022/11/16 01:39:29;;;;;;;0.93;0.93;;;;;;;8.95;88.46;95133.47;5113616;28;20833;-51
2022/11/16 01:41:57;;;;;;;0.60;0.50;;;;;;;9.29;86.51;95131.09;5113219;28;20432;-51
2022/11/16 01:45:08;;;;;;;0.80;0.80;;;;;;;9.38;83.93;95129.50;5113163;28;20436;-51
2022/11/16 01:47:37;;;;;;;0.50;0.40;;;;;;;9.05;87.14;95119.47;5096970;27;20444;-51
2022/11/16 01:50:10;;;;;;;0.40;0.33;;;;;;;9.31;85.87;95121.81;5112945;28;20467;-51
2022/11/16 01:52:45;;;;;;;2.73;0.40;;;;;;;9.36;85.92;95113.88;5113086;28;20932;-51
2022/11/16 01:55:13;;;;;;;0.50;0.47;;;;;;;9.41;84.57;95110.47;5113031;28;20485;-51
2022/11/16 01:57:44;;;;;;;0.77;0.77;;;;;;;9.54;84.98;95112.53;5113268;28;20428;-51
2022/11/16 02:00:14;;;;;;;0.43;0.37;;;;;;;9.34;85.35;95086.91;5113159;27;20777;-51
2022/11/16 02:02:44;;;;;;;0.30;0.23;;;;;;;9.49;84.36;95105.41;5112893;28;20416;-52
2022/11/16 02:05:16;;;;;;;0.73;0.73;;;;;;;9.64;84.03;95098.53;5112745;28;20428;-51
2022/11/16 02:11:10;;;;;;;0.83;0.83;;;;;;;9.21;86.42;95086.69;5087739;28;20487;-51
2022/11/16 02:13:51;;;;;;;1.13;1.13;;;;;;;9.19;88.25;95080.84;5112819;28;20424;-52
2022/11/16 02:16:32;;;;;;;0.40;0.40;;;;;;;8.97;90.79;95081.13;5112891;28;20810;-52
2022/11/16 02:19:27;;;;;;;4.00;1.07;;;;;;;9.39;88.19;95083.47;5112707;28;20438;-52
2022/11/16 02:22:06;;;;;;;0.80;0.80;;;;;;;9.34;87.34;95080.81;5112509;28;20432;-52
2022/11/16 02:24:44;;;;;;;1.27;1.20;;;;;;;8.76;88.74;95058.38;5112593;28;20520;-52
2022/11/16 02:27:48;;;;;;;2.43;2.20;;;;;;;8.59;92.20;95086.91;5112156;28;20487;-52
2022/11/16 02:30:19;;;;;;;3.27;1.70;;;;;;;8.15;98.42;95081.22;5112049;28;20490;-52
2022/11/16 02:32:53;;;;;;;2.20;0.97;;;;;;;8.23;97.26;95078.88;5112513;28;20972;-52
2022/11/16 02:35:26;;;;;;;0.93;0.93;;;;;;;8.37;90.90;95081.84;5112405;28;20428;-53
2022/11/16 02:37:59;;;;;;;1.87;1.67;;;;;;;7.53;90.98;95097.03;5112381;28;20420;-52
2022/11/16 02:40:31;;;;;;;7.30;3.73;;;;;;;7.34;95.75;95093.22;5112085;28;20443;-52
2022/11/16 02:43:05;;;;;;;0.40;0.30;;;;;;;7.50;95.04;95090.44;5112103;28;20438;-52
2022/11/16 02:45:40;;;;;;;3.23;1.70;;;;;;;7.83;93.91;95088.50;5112221;28;20428;-52
2022/11/16 02:48:13;;;;;;;1.03;0.60;;;;;;;8.26;88.50;95072.28;5112376;28;20763;-52
2022/11/16 02:50:43;;;;;;;0.83;0.83;;;;;;;8.90;85.41;95081.38;5111956;28;20459;-52
2022/11/16 02:53:11;;;;;;;1.20;1.13;;;;;;;8.94;83.29;95082.44;5112249;28;20420;-52
2022/11/16 02:55:40;;;;;;;1.33;1.33;;;;;;;9.05;82.30;95071.88;5111662;28;20446;-52
2022/11/16 02:58:11;;;;;;;1.30;1.30;;;;;;;9.08;83.07;95076.63;5111385;28;20421;-52
2022/11/16 03:00:46;;;;;;;1.03;0.73;;;;;;;9.11;82.74;95068.97;5116088;28;20436;-52
2022/11/16 03:03:27;;;;;;;4.10;1.03;;;;;;;9.03;83.32;95066.06;5116497;28;20416;-52
2022/11/16 03:06:01;;;;;;;3.73;3.43;;;;;;;8.89;84.49;95066.59;5116329;27;20439;-52
2022/11/16 03:08:32;;;;;;;1.17;1.10;;;;;;;8.48;86.06;95030.63;5116018;28;20435;-52
2022/11/16 03:13:51;;;;;;;1.00;1.00;;;;;;;9.11;85.35;95057.59;5115820;28;20440;-52
2022/11/16 03:16:26;;;;;;;1.00;1.00;;;;;;;9.21;85.09;95054.97;5116182;28;20502;-52
2022/11/16 03:18:57;;;;;;;1.70;1.60;;;;;;;9.27;83.62;95064.44;5115775;28;20423;-53
2022/11/16 03:21:33;;;;;;;1.53;1.43;;;;;;;8.84;83.69;94955.59;5115664;28;20436;-52
2022/11/16 03:24:02;;;;;;;2.63;2.33;;;;;;;9.40;83.58;95062.06;5115670;28;21042;-52
2022/11/16 03:26:38;;;;;;;2.87;1.13;;;;;;;8.70;88.39;95047.03;5115522;28;20490;-52
2022/11/16 03:29:14;;;;;;;3.87;2.27;;;;;;;9.18;86.60;95060.78;5115763;27;20431;-52
2022/11/16 03:31:48;;;;;;;2.13;1.33;;;;;;;9.31;85.17;95061.00;5115862;28;20467;-52
2022/11/16 03:34:22;;;;;;;1.30;1.30;;;;;;;9.64;85.05;95049.03;5115586;28;20915;-52
2022/11/16 03:36:53;;;;;;;1.83;1.73;;;;;;;9.77;84.08;95053.75;5115779;28;20432;-53
2022/11/16 03:39:25;;;;;;;2.83;2.73;;;;;;;9.59;85.44;95056.97;5115729;28;20435;-53
2022/11/16 03:41:56;;;;;;;0.57;0.57;;;;;;;9.59;85.48;95035.81;5115473;28;20451;-52
2022/11/16 03:44:25;;;;;;;1.13;1.13;;;;;;;9.68;85.55;95044.78;5115324;28;20439;-52
2022/11/16 03:46:55;;;;;;;1.10;1.10;;;;;;;8.80;90.73;95049.66;5115643;28;20504;-52
2022/11/16 03:49:23;;;;;;;10.27;2.00;;;;;;;8.39;98.49;95032.22;5115178;28;20431;-52
2022/11/16 03:51:52;;;;;;;2.40;2.20;;;;;;;7.80;100.00;95030.97;5115148;28;20486;-52
2022/11/16 03:54:20;;;;;;;1.60;1.50;;;;;;;8.34;100.00;95023.50;5115130;28;20415;-52
2022/11/16 03:56:49;;;;;;;0.80;0.80;;;;;;;8.07;100.00;95007.84;5115390;28;20428;-52
2022/11/16 03:59:17;;;;;;;2.00;1.73;;;;;;;8.56;100.00;95016.91;5115380;28;20419;-52
2022/11/16 04:01:45;;;;;;;0.63;0.63;;;;;;;8.92;100.00;95021.16;5115256;28;20432;-52
2022/11/16 04:26:17;;;;;;;1.17;1.17;;;;;;;9.34;89.28;94986.41;5114227;28;20471;-52
2022/11/16 04:28:44;;;;;;;2.30;0.63;;;;;;;9.32;89.70;94995.69;5114542;28;20432;-52
2022/11/16 04:39:31;;;;;;;1.10;1.00;;;;;;;9.47;88.70;94983.22;5114358;28;20428;-52
2022/11/16 04:42:14;;;;;;;0.93;0.93;;;;;;;9.51;88.55;94984.25;5114549;28;20458;-52
2022/11/16 04:47:28;;;;;;;1.27;1.17;;;;;;;9.09;91.63;94994.41;5114346;28;20459;-52
2022/11/16 04:49:57;;;;;;;1.77;1.03;;;;;;;9.10;90.56;94944.97;5114038;28;20428;-52
2022/11/16 04:52:26;;;;;;;3.30;3.10;;;;;;;9.28;90.44;94984.88;5114046;28;20463;-52
2022/11/16 04:54:54;;;;;;;1.80;1.70;;;;;;;9.23;91.12;94978.78;5114321;28;20432;-52
2022/11/16 04:57:23;;;;;;;6.13;3.70;;;;;;;8.81;94.34;94987.84;5114026;28;20436;-53
2022/11/16 04:59:51;;;;;;;2.77;2.67;;;;;;;8.60;97.70;94990.78;5113939;27;20934;-52
2022/11/16 05:02:19;;;;;;;2.00;1.87;;;;;;;8.66;99.62;94981.78;5114236;28;20773;-52
2022/11/16 05:04:48;;;;;;;1.30;1.30;;;;;;;9.20;94.94;94984.63;5114129;28;20432;-53
2022/11/16 05:07:16;;;;;;;0.57;0.50;;;;;;;8.49;93.48;94886.16;5114108;28;20420;-53
2022/11/16 05:09:47;;;;;;;0.83;0.80;;;;;;;8.66;92.53;94910.44;5113743;28;20428;-52
2022/11/16 05:12:19;;;;;;;1.13;1.13;;;;;;;9.10;91.95;94971.41;5113579;28;21005;-53
2022/11/16 05:14:47;;;;;;;1.10;1.07;;;;;;;8.78;93.03;94969.88;5113519;28;20438;-52
2022/11/16 05:17:16;;;;;;;3.53;1.77;;;;;;;8.81;94.97;94990.47;5113511;28;20452;-52
2022/11/16 05:22:30;;;;;;;1.33;1.23;;;;;;;8.96;93.51;94994.94;5113518;28;20441;-52
2022/11/16 05:25:00;;;;;;;0.60;0.60;;;;;;;8.92;94.37;94994.72;5113641;27;20428;-52
2022/11/16 05:27:29;;;;;;;1.70;1.60;;;;;;;9.03;92.88;94989.41;5113017;27;20468;-52
2022/11/16 05:29:58;;;;;;;1.40;0.80;;;;;;;9.24;91.83;94988.28;5113304;27;20436;-52
2022/11/16 05:32:28;;;;;;;0.73;0.73;;;;;;;9.44;90.30;94989.03;5113443;28;20482;-52
2022/11/16 05:34:56;;;;;;;2.23;2.13;;;;;;;9.30;90.65;94989.88;5113045;28;20443;-53
2022/11/16 05:37:25;;;;;;;2.50;0.90;;;;;;;9.22;90.37;94979.84;5113220;28;20919;-52
2022/11/16 05:39:55;;;;;;;0.80;0.80;;;;;;;9.16;90.85;94973.00;5112913;27;21004;-56
2022/11/16 05:42:25;;;;;;;0.93;0.93;;;;;;;9.37;90.42;94987.72;5112858;28;20480;-52
2022/11/16 05:44:53;;;;;;;6.70;2.20;;;;;;;9.48;88.83;94990.09;5112754;28;20432;-52
2022/11/16 05:47:22;;;;;;;0.60;0.60;;;;;;;9.65;86.91;94983.66;5112670;28;20431;-52
2022/11/16 05:49:50;;;;;;;0.83;0.83;;;;;;;9.24;87.77;94981.16;5112117;28;20434;-52
2022/11/16 05:52:18;;;;;;;0.70;0.70;;;;;;;8.79;89.78;94944.25;5112570;28;20476;-52
2022/11/16 05:54:46;;;;;;;0.70;0.70;;;;;;;9.11;91.70;94991.53;5113122;28;20434;-52
2022/11/16 05:57:16;;;;;;;2.73;2.57;;;;;;;9.20;91.07;94985.41;5112876;28;20443;-52
2022/11/16 05:59:45;;;;;;;4.60;1.20;;;;;;;9.14;91.22;95017.41;5112720;28;20416;-52
2022/11/16 06:02:14;;;;;;;2.60;1.37;;;;;;;9.35;90.11;94976.63;5112581;28;20815;-52
2022/11/16 06:04:42;;;;;;;1.07;1.07;;;;;;;9.59;87.74;94978.41;5112752;28;20420;-52
2022/11/16 06:07:10;;;;;;;0.70;0.70;;;;;;;9.57;86.93;94985.03;5112415;28;20438;-52
2022/11/16 06:09:39;;;;;;;3.00;2.80;;;;;;;8.84;90.47;94982.03;5112931;28;20449;-52
2022/11/16 06:12:08;;;;;;;1.80;1.50;;;;;;;9.11;91.17;94983.59;5112533;28;20475;-52
2022/11/16 06:14:36;;;;;;;1.73;1.63;;;;;;;9.27;88.50;94979.81;5112676;28;20424;-51
2022/11/16 06:17:06;;;;;;;0.50;0.43;;;;;;;9.31;87.67;94984.31;5112935;28;20534;-52
2022/11/16 06:19:35;;;;;;;3.70;1.80;;;;;;;9.23;88.17;94976.16;5112512;28;20423;-52
2022/11/16 06:22:03;;;;;;;2.30;1.23;;;;;;;9.42;86.65;94971.84;5112373;28;20435;-52
2022/11/16 06:24:31;;;;;;;1.10;1.00;;;;;;;9.52;86.65;94967.31;5112334;28;20780;-52
2022/11/16 06:27:00;;;;;;;1.40;1.30;;;;;;;9.50;86.96;94969.44;5111832;28;20479;-52
2022/11/16 06:29:28;;;;;;;0.63;0.63;;;;;;;10.00;84.48;94972.91;5111934;28;20434;-51
2022/11/16 06:31:56;;;;;;;1.23;1.23;;;;;;;10.07;83.67;94965.44;5112360;28;20432;-51
2022/11/16 06:34:26;;;;;;;0.60;0.60;;;;;;;9.84;85.82;94968.78;5111991;28;20427;-51
2022/11/16 06:36:54;;;;;;;1.43;0.80;;;;;;;10.24;83.10;94963.28;5111735;28;20459;-51
2022/11/16 06:39:22;;;;;;;5.93;1.07;;;;;;;10.35;81.99;94961.34;5112213;28;20416;-51
2022/11/16 06:41:51;;;;;;;1.00;1.00;;;;;;;9.70;83.96;94957.19;5112337;28;20523;-51
2022/11/16 06:44:19;;;;;;;1.10;0.53;;;;;;;9.78;85.11;94965.34;5112410;28;20424;-51
2022/11/16 06:46:47;;;;;;;0.83;0.83;;;;;;;9.82;85.89;94961.09;5112077;28;20912;-51
2022/11/16 06:49:15;;;;;;;1.80;1.70;;;;;;;10.00;85.72;94967.63;5112016;28;20436;-51
2022/11/16 06:51:45;;;;;;;0.70;0.63;;;;;;;10.00;85.22;94968.41;5111974;28;20524;-51
2022/11/16 06:54:13;;;;;;;0.60;0.50;;;;;;;10.10;85.66;94963.06;5111942;28;20464;-52
2022/11/16 06:56:59;;;;;;;0.73;0.63;;;;;;;10.39;83.98;94970.31;5111954;28;20770;-52
2022/11/16 06:59:27;;;;;;;0.70;0.70;;;;;;;10.76;82.41;94963.38;5112016;28;20834;-53
2022/11/16 07:01:55;;;;;;;2.10;1.97;;;;;;;10.70;82.25;94959.19;5111799;28;20420;-52
2022/11/16 07:04:23;;;;;;;1.13;1.13;;;;;;;10.65;82.32;94953.94;5112079;28;20424;-53
2022/11/16 07:06:53;;;;;;;1.97;1.70;;;;;;;10.64;83.19;94956.88;5112037;28;20428;-53
2022/11/16 07:09:22;;;;;;;2.40;1.20;;;;;;;10.83;82.07;94955.09;5111831;28;20476;-52
2022/11/16 07:11:50;;;;;;;1.50;1.40;;;;;;;10.83;81.94;94955.09;5112142;28;20424;-52
2022/11/16 07:14:19;;;;;;;1.80;1.70;;;;;;;10.90;81.85;94952.16;5111899;28;21009;-54
2022/11/16 07:16:47;;;;;;;1.93;1.83;;;;;;;10.97;82.04;94944.66;5111788;28;20457;-53
2022/11/16 07:19:16;;;;;;;5.20;1.77;;;;;;;11.06;82.32;94948.25;5111248;28;20428;-53
2022/11/16 07:21:44;;;;;;;3.73;3.27;;;;;;;10.78;82.21;94942.69;5111638;28;20446;-53
2022/11/16 07:24:17;;;;;;;2.63;1.87;;;;;;;10.86;81.67;94938.66;5111541;28;20431;-53
2022/11/16 07:26:45;;;;;;;3.00;2.80;;;;;;;10.26;83.31;94939.16;5111135;28;20988;-53
2022/11/16 07:29:14;;;;;;;5.67;5.17;;;;;;;10.48;84.19;94944.81;5111070;28;20432;-53
2022/11/16 07:31:42;;;;;;;19.80;4.90;;;;;;;10.05;86.30;94941.09;5111328;28;20428;-53
2022/11/16 07:34:14;;;;;;;3.50;3.30;;;;;;;10.88;84.76;94941.03;5111405;28;20486;-54
2022/11/16 07:36:42;;;;;;;2.47;2.37;;;;;;;10.66;83.97;94944.13;5111222;28;20494;-53
2022/11/16 07:39:10;;;;;;;2.63;2.50;;;;;;;10.56;83.91;94941.56;5111246;28;20424;-52
2022/11/16 07:41:43;;;;;;;3.80;2.40;;;;;;;10.25;85.55;94942.84;5111353;28;20787;-53
2022/11/16 07:44:11;;;;;;;6.70;2.13;;;;;;;10.19;87.85;94950.84;5111569;28;20428;-53
2022/11/16 07:46:39;;;;;;;2.70;1.40;;;;;;;10.39;88.73;94944.63;5114971;28;20427;-53
2022/11/16 07:49:18;;;;;;;1.60;1.50;;;;;;;10.98;85.36;94943.59;5114733;28;20436;-52
2022/11/16 07:51:46;;;;;;;1.33;1.23;;;;;;;11.05;83.46;94941.38;5115296;28;20428;-51
2022/11/16 07:54:15;;;;;;;1.90;1.80;;;;;;;10.65;84.12;94903.56;5114923;28;20491;-51
2022/11/16 07:56:45;;;;;;;3.60;1.50;;;;;;;10.66;84.62;94933.53;5114961;28;20931;-52
2022/11/16 07:59:13;;;;;;;1.50;1.40;;;;;;;10.83;84.37;94942.66;5114797;28;20963;-52
2022/11/16 08:01:41;;;;;;;1.30;1.13;;;;;;;11.16;84.14;94938.34;5114911;28;20517;-52
2022/11/16 08:04:10;;;;;;;1.77;1.50;;;;;;;11.23;83.12;94938.03;5114794;28;20491;-53
2022/11/16 08:06:38;;;;;;;2.00;1.90;;;;;;;11.84;79.80;94932.81;5114877;28;20440;-53
2022/11/16 08:09:06;;;;;;;0.97;0.87;;;;;;;11.50;80.76;94943.53;5114793;28;20944;-53
2022/11/16 08:11:34;;;;;;;4.43;2.17;;;;;;;12.19;78.58;94934.16;5114626;28;20505;-52
2022/11/16 08:14:04;;;;;;;1.97;1.87;;;;;;;12.42;76.51;94923.44;5114341;28;21006;-52
2022/11/16 08:16:33;;;;;;;13.60;3.40;;;;;;;12.89;73.84;94927.72;5114550;28;20993;-53
2022/11/16 08:19:01;;;;;;;0.63;0.63;;;;;;;13.11;72.57;94919.91;5114567;28;20419;-52
2022/11/16 08:21:29;;;;;;;1.23;1.13;;;;;;;13.43;71.66;94916.38;5114536;28;20426;-53
2022/11/16 08:23:57;;;;;;;0.90;0.90;;;;;;;13.35;70.62;94920.53;5114683;28;20540;-53
2022/11/16 08:26:27;;;;;;;3.07;1.33;;;;;;;13.93;69.52;94917.19;5113416;28;20493;-53
2022/11/16 08:28:55;;;;;;;0.97;0.60;;;;;;;13.58;69.86;94912.63;5114160;28;20437;-54
2022/11/16 08:31:26;;;;;;;5.00;2.47;;;;;;;13.56;70.68;94904.91;5113948;28;20434;-54
2022/11/16 08:33:55;;;;;;;0.50;0.50;;;;;;;13.65;70.72;94895.16;5113806;28;20468;-54
2022/11/16 08:36:23;;;;;;;0.80;0.50;;;;;;;14.34;68.13;94903.78;5114244;27;20510;-54
2022/11/16 08:38:52;;;;;;;2.03;1.93;;;;;;;14.60;67.30;94899.41;5113491;28;20870;-55
2022/11/16 08:41:21;;;;;;;1.73;1.07;;;;;;;15.36;65.92;94894.75;5114067;28;20433;-56
2022/11/16 08:43:52;;;;;;;13.43;2.10;;;;;;;16.11;63.67;94887.28;5114177;28;20444;-56
2022/11/16 08:46:20;;;;;;;3.13;0.70;;;;;;;17.50;61.02;94875.97;5114088;27;20462;-56
2022/11/16 08:48:55;;;;;;;2.70;1.20;;;;;;;18.25;57.23;94880.41;5114200;28;20465;-57
2022/11/16 08:51:25;;;;;;;1.50;1.37;;;;;;;17.76;57.84;94871.28;5113703;28;20438;-57
2022/11/16 08:54:11;;;;;;;1.90;1.60;;;;;;;18.27;56.04;94868.25;5114039;28;20478;-56
2022/11/16 08:56:39;;;;;;;2.30;2.10;;;;;;;18.97;55.30;94861.91;5113675;28;20910;-55
2022/11/16 08:59:07;;;;;;;1.80;1.63;;;;;;;18.34;55.05;94860.44;5113839;28;20415;-55
2022/11/16 09:01:35;;;;;;;1.73;1.73;;;;;;;19.61;53.28;94864.03;5113590;27;20529;-55
2022/11/16 09:04:05;;;;;;;3.00;1.40;;;;;;;19.55;51.48;94854.63;5113810;28;20480;-54
2022/11/16 09:06:36;;;;;;;0.97;0.97;;;;;;;19.39;52.37;94859.09;5113869;28;20430;-54
2022/11/16 09:09:04;;;;;;;2.30;2.20;;;;;;;20.02;50.59;94853.00;5113695;28;20764;-54
2022/11/16 09:11:33;;;;;;;12.40;1.87;;;;;;;20.15;50.25;94854.56;5113728;28;20432;-53
2022/11/16 09:14:01;;;;;;;2.77;2.67;;;;;;;20.98;48.66;94840.31;5113855;28;20491;-52
2022/11/16 09:16:47;;;;;;;2.40;1.63;;;;;;;21.02;47.59;94849.28;5113616;28;20402;-52
2022/11/16 09:19:16;;;;;;;3.53;1.97;;;;;;;21.14;47.62;94837.66;5113586;28;20951;-52
2022/11/16 09:21:45;;;;;;;1.37;1.23;;;;;;;22.08;45.91;94822.97;5113384;28;20424;-52
2022/11/16 09:24:13;;;;;;;2.60;1.33;;;;;;;22.95;44.56;94821.56;5113288;28;20793;-52
2022/11/16 09:26:41;;;;;;;8.57;2.13;;;;;;;21.47;44.73;94817.31;5113202;28;20472;-51
2022/11/16 09:29:13;;;;;;;1.90;1.40;;;;;;;21.59;44.87;94819.13;5112738;28;20432;-52
2022/11/16 09:31:41;;;;;;;1.90;1.80;;;;;;;21.14;45.09;94824.19;5113506;28;20424;-52
2022/11/16 09:34:09;;;;;;;1.90;1.80;;;;;;;21.93;44.72;94815.69;5113455;28;20486;-52
2022/11/16 09:36:39;;;;;;;2.33;2.23;;;;;;;22.21;43.40;94806.63;5113035;28;20919;-51
2022/11/16 09:39:07;;;;;;;0.90;0.90;;;;;;;23.74;41.07;94812.47;5112941;28;20432;-52
2022/11/16 09:42:07;;;;;;;1.63;1.53;;;;;;;21.93;44.13;94804.91;5112896;28;20512;-52
2022/11/16 09:44:58;;;;;;;4.07;2.13;;;;;;;21.55;44.56;94810.16;5112882;27;20431;-52
2022/11/16 09:47:38;;;;;;;1.80;1.70;;;;;;;22.59;43.06;94799.28;5103690;28;20436;-51
2022/11/16 09:50:15;;;;;;;5.63;1.50;;;;;;;21.84;43.16;94796.19;5112789;28;20810;-51
2022/11/16 09:52:49;;;;;;;0.90;0.90;;;;;;;21.88;44.79;94788.97;5112738;28;20514;-51
2022/11/16 09:55:24;;;;;;;1.43;1.33;;;;;;;22.23;43.40;94775.44;5112760;28;20485;-51
2022/11/16 09:57:57;;;;;;;1.20;1.20;;;;;;;23.13;42.16;94772.09;5112661;28;20419;-51
2022/11/16 10:00:25;;;;;;;4.63;1.50;;;;;;;23.87;40.19;94764.34;5112582;28;20948;-52
2022/11/16 10:03:02;;;;;;;1.90;1.80;;;;;;;24.97;38.85;94761.75;5112502;27;20436;-51
2022/11/16 10:05:37;;;;;;;5.23;2.73;;;;;;;23.96;39.41;94762.91;5112659;28;20434;-52
2022/11/16 10:08:14;;;;;;;1.80;1.73;;;;;;;22.71;41.47;94755.94;5111734;28;20436;-52
2022/11/16 10:10:51;;;;;;;1.93;1.87;;;;;;;22.20;42.34;94754.53;5112384;28;20431;-52
2022/11/16 10:13:28;;;;;;;1.10;0.87;;;;;;;23.44;41.07;94754.84;5112577;28;20458;-52
2022/11/16 10:16:05;;;;;;;3.67;1.73;;;;;;;23.33;41.16;94745.75;5112154;28;20967;-52
2022/11/16 10:18:46;;;;;;;4.57;1.60;;;;;;;23.83;40.94;94747.28;5112392;28;20823;-52
2022/11/16 10:21:36;;;;;;;2.40;1.70;;;;;;;23.18;41.17;94736.63;5112651;28;20473;-52
2022/11/16 10:24:25;;;;;;;3.60;1.23;;;;;;;23.33;40.61;94721.41;5112490;28;20944;-52
2022/11/16 10:27:07;;;;;;;1.70;1.50;;;;;;;23.33;39.83;94567.25;5112215;28;20471;-52
2022/11/16 10:29:48;;;;;;;1.73;1.63;;;;;;;23.56;39.52;94714.03;5112337;28;20474;-52
2022/11/16 10:32:24;;;;;;;3.83;1.73;;;;;;;23.55;39.80;94714.41;5112470;28;20446;-52
2022/11/16 10:34:54;;;;;;;1.57;1.40;;;;;;;23.88;39.45;94695.53;5112197;28;20563;-52
2022/11/16 10:37:30;;;;;;;1.13;1.03;;;;;;;23.98;40.43;94681.34;5112171;28;20443;-53
2022/11/16 10:40:02;;;;;;;2.50;1.17;;;;;;;23.99;39.13;94680.19;5112256;28;20431;-53
2022/11/16 10:42:38;;;;;;;2.77;1.67;;;;;;;23.17;40.20;94680.25;5112309;28;20931;-53
2022/11/16 10:45:15;;;;;;;1.17;1.17;;;;;;;24.19;39.51;94672.69;5112135;28;20437;-53
2022/11/16 10:47:50;;;;;;;0.50;0.50;;;;;;;25.29;37.41;94664.41;5112206;28;20430;-54
2022/11/16 10:50:31;;;;;;;3.47;0.87;;;;;;;23.75;39.61;94659.03;5111924;28;20426;-53
2022/11/16 10:53:00;;;;;;;1.00;0.90;;;;;;;23.50;40.96;94649.81;5112047;28;20963;-53
2022/11/16 10:55:30;;;;;;;0.93;0.93;;;;;;;23.38;40.78;94670.53;5112265;28;20554;-53
2022/11/16 10:58:00;;;;;;;0.57;0.57;;;;;;;23.92;39.55;94664.66;5112032;28;20955;-53
2022/11/16 11:00:38;;;;;;;1.47;1.00;;;;;;;22.98;41.16;94666.81;5112316;28;20765;-53
2022/11/16 11:03:09;;;;;;;0.90;0.90;;;;;;;23.05;41.15;94658.78;5112149;28;20427;-53
2022/11/16 11:05:48;;;;;;;3.17;0.87;;;;;;;23.38;40.52;94653.50;5111956;28;20956;-52
2022/11/16 11:08:26;;;;;;;0.90;0.90;;;;;;;23.05;41.57;94647.97;5111760;28;20900;-52
2022/11/16 11:12:36;;;;;;;1.93;1.83;;;;;;;23.17;41.66;94650.50;5112193;28;20420;-52
2022/11/16 11:14:03;;;;;;;0.50;0.50;;;;;;;23.44;40.42;94637.75;5111951;28;20515;-52
2022/11/16 11:16:32;;;;;;;1.30;0.70;;;;;;;25.13;37.95;94645.69;5111786;28;20486;-52
2022/11/16 11:19:19;;;;;;;2.33;1.10;;;;;;;24.33;38.76;94630.31;5111761;28;20432;-53
2022/11/16 11:21:48;;;;;;;1.07;0.97;;;;;;;24.39;38.81;94634.22;5116229;28;20827;-53
2022/11/16 11:24:17;;;;;;;1.53;1.10;;;;;;;24.05;39.54;94602.13;5116183;28;20446;-52
2022/11/16 11:27:07;;;;;;;0.70;0.70;;;;;;;24.30;39.48;94616.72;5114561;28;20467;-52
2022/11/16 11:29:37;;;;;;;1.00;1.00;;;;;;;24.16;39.77;94611.94;5115895;28;20420;-52
2022/11/16 11:32:12;;;;;;;1.30;1.07;;;;;;;23.11;40.72;94611.38;5115759;28;20431;-52
2022/11/16 11:34:49;;;;;;;3.87;1.13;;;;;;;20.83;44.61;94612.13;5115547;28;20431;-52
2022/11/16 11:37:21;;;;;;;1.20;0.70;;;;;;;21.07;44.10;94613.84;5115021;27;20481;-52
2022/11/16 11:40:05;;;;;;;0.97;0.80;;;;;;;21.77;43.68;94606.41;5115340;27;20430;-53
2022/11/16 11:42:35;;;;;;;1.20;1.10;;;;;;;22.02;43.03;94602.28;5115677;28;20424;-53
2022/11/16 11:45:08;;;;;;;0.90;0.90;;;;;;;22.80;41.80;94606.28;5114762;28;20494;-54
2022/11/16 11:47:52;;;;;;;0.50;0.43;;;;;;;22.56;41.92;94594.75;5115487;27;20928;-54
2022/11/16 11:50:36;;;;;;;3.37;0.40;;;;;;;21.58;43.30;94599.09;5115439;27;20436;-54
2022/11/16 11:53:08;;;;;;;1.53;0.60;;;;;;;21.47;44.09;94606.22;5115450;28;20434;-54
2022/11/16 11:55:36;;;;;;;2.60;0.73;;;;;;;21.24;45.07;94600.75;5115233;28;20470;-54
2022/11/16 11:58:11;;;;;;;0.97;0.70;;;;;;;21.08;44.40;94583.06;5115581;28;20428;-54
2022/11/16 12:01:04;;;;;;;0.50;0.43;;;;;;;21.64;43.66;94589.59;5115321;28;20950;-54
2022/11/16 12:03:51;;;;;;;0.70;0.70;;;;;;;20.49;43.69;94440.59;5115282;28;20434;-53
2022/11/16 12:06:27;;;;;;;0.60;0.57;;;;;;;21.71;43.22;94587.03;5115473;28;20787;-54
2022/11/16 12:09:08;;;;;;;2.97;0.70;;;;;;;20.52;45.56;94582.53;5115026;28;20432;-53
2022/11/16 12:11:49;;;;;;;1.70;1.60;;;;;;;20.23;46.36;94584.56;5115447;28;20416;-54
2022/11/16 12:14:32;;;;;;;7.33;0.70;;;;;;;19.75;47.70;94566.00;5115076;28;20431;-54
2022/11/16 12:17:07;;;;;;;4.53;1.30;;;;;;;19.91;47.38;94568.72;5114791;28;20470;-54
2022/11/16 12:19:55;;;;;;;2.17;1.53;;;;;;;18.86;49.85;94576.16;5115151;28;20426;-54
2022/11/16 12:22:41;;;;;;;1.60;0.80;;;;;;;18.70;49.65;94569.91;5114892;28;20451;-52
2022/11/16 12:25:21;;;;;;;0.60;0.50;;;;;;;19.40;48.02;94567.75;5114754;28;20424;-52
2022/11/16 12:28:04;;;;;;;0.87;0.87;;;;;;;19.17;49.17;94569.38;5114273;28;20483;-52
2022/11/16 12:30:43;;;;;;;0.60;0.40;;;;;;;18.85;50.09;94569.22;5114712;28;20434;-53
2022/11/16 12:33:24;;;;;;;0.53;0.50;;;;;;;18.71;50.92;94562.66;5113871;28;20932;-53
2022/11/16 12:36:01;;;;;;;0.40;0.37;;;;;;;18.37;52.14;94564.66;5114246;28;20465;-53
2022/11/16 12:38:58;;;;;;;0.60;0.50;;;;;;;18.25;51.78;94558.50;5114503;28;20428;-53
2022/11/16 12:41:46;;;;;;;2.60;1.13;;;;;;;18.26;52.49;94560.09;5114379;28;20439;-53